Time;durP1;ratioP1;P1;durP2;ratioP2;P2;SDS_P1;SDS_P2;PMS_P1;PMS_P2;Temp;Humidity;BMP_temperature;BMP_pressure;BME280_temperature;BME280_humidity;BME280_pressure;Samples;Min_cycle;Max_cycle;Signal;HPM_P1;HPM_P2
2021/07/30 00:00:05;;;;;;;;;;;;;;;;;;2114122;28;45320;-65
2021/07/30 00:01:07;;;;;;;;;;;;;;;;;;2113796;28;46282;-65
2021/07/30 00:02:09;;;;;;;;;;;;;;;;;;2105397;28;45308;-65
2021/07/30 00:03:10;;;;;;;;;;;;;;;;;;2114088;28;46686;-65
2021/07/30 00:04:11;;;;;;;;;;;;;;;;;;2113878;28;43719;-65
2021/07/30 00:05:13;;;;;;;;;;;;;;;;;;2105653;28;45333;-65
2021/07/30 00:06:14;;;;;;;;;;;;;;;;;;2105440;28;45819;-65
2021/07/30 00:07:16;;;;;;;;;;;;;;;;;;2105332;28;45873;-65
2021/07/30 00:08:20;;;;;;;;;;;;;;;;;;2105376;28;46698;-65
2021/07/30 00:09:22;;;;;;;;;;;;;;;;;;2114073;28;45288;-65
2021/07/30 00:10:24;;;;;;;;;;;;;;;;;;2113980;28;43947;-66
2021/07/30 00:11:25;;;;;;;;;;;;;;;;;;2114557;27;45320;-66
2021/07/30 00:12:26;;;;;;;;;;;;;;;;;;2114091;28;43688;-65
2021/07/30 00:13:28;;;;;;;;;;;;;;;;;;2114094;28;45520;-65
2021/07/30 00:14:30;;;;;;;;;;;;;;;;;;2114515;28;45307;-66
2021/07/30 00:15:31;;;;;;;;;;;;;;;;;;2114445;28;44184;-66
2021/07/30 00:16:33;;;;;;;;;;;;;;;;;;2114243;28;43418;-67
2021/07/30 00:17:34;;;;;;;;;;;;;;;;;;2105724;28;46292;-67
2021/07/30 00:18:36;;;;;;;;;;;;;;;;;;2105954;28;43826;-67
2021/07/30 00:19:37;;;;;;;;;;;;;;;;;;2113798;28;46618;-67
2021/07/30 00:20:39;;;;;;;;;;;;;;;;;;2114025;28;44102;-68
2021/07/30 00:21:40;;;;;;;;;;;;;;;;;;2113459;28;46404;-68
2021/07/30 00:22:41;;;;;;;;;;;;;;;;;;2114285;28;45230;-68
2021/07/30 00:23:43;;;;;;;;;;;;;;;;;;2114303;28;46756;-67
2021/07/30 00:24:44;;;;;;;;;;;;;;;;;;2113922;28;46537;-66
2021/07/30 00:25:45;;;;;;;;;;;;;;;;;;2113636;28;46625;-65
2021/07/30 00:26:48;;;;;;;;;;;;;;;;;;2113798;28;45579;-66
2021/07/30 00:27:50;;;;;;;;;;;;;;;;;;2105429;28;46479;-66
2021/07/30 00:28:51;;;;;;;;;;;;;;;;;;2105611;28;46690;-66
2021/07/30 00:29:52;;;;;;;;;;;;;;;;;;2105265;28;45262;-65
2021/07/30 00:30:54;;;;;;;;;;;;;;;;;;2113889;28;46632;-66
2021/07/30 00:31:55;;;;;;;;;;;;;;;;;;2113619;28;43695;-66
2021/07/30 00:32:57;;;;;;;;;;;;;;;;;;2105476;28;45753;-67
2021/07/30 00:33:58;;;;;;;;;;;;;;;;;;2105470;28;45452;-67
2021/07/30 00:35:00;;;;;;;;;;;;;;;;;;2113908;28;45376;-66
2021/07/30 00:36:01;;;;;;;;;;;;;;;;;;2113659;28;45406;-66
2021/07/30 00:37:03;;;;;;;;;;;;;;;;;;2105441;28;45609;-67
2021/07/30 00:38:04;;;;;;;;;;;;;;;;;;2114062;28;45438;-67
2021/07/30 00:39:06;;;;;;;;;;;;;;;;;;2113943;28;43850;-67
2021/07/30 00:40:07;;;;;;;;;;;;;;;;;;2114252;28;44554;-67
2021/07/30 00:41:09;;;;;;;;;;;;;;;;;;2113499;28;44006;-67
2021/07/30 00:42:12;;;;;;;;;;;;;;;;;;2114744;28;14899;-66
2021/07/30 00:43:14;;;;;;;;;;;;;;;;;;2114456;28;45924;-66
2021/07/30 00:44:15;;;;;;;;;;;;;;;;;;2113458;28;45954;-67
2021/07/30 00:45:17;;;;;;;;;;;;;;;;;;2113813;28;47067;-67
2021/07/30 00:46:19;;;;;;;;;;;;;;;;;;2113600;28;45799;-66
2021/07/30 00:47:20;;;;;;;;;;;;;;;;;;2113723;28;47358;-66
2021/07/30 00:48:23;;;;;;;;;;;;;;;;;;2105358;28;47091;-67
2021/07/30 00:49:25;;;;;;;;;;;;;;;;;;2113828;28;47337;-67
2021/07/30 00:50:26;;;;;;;;;;;;;;;;;;2114509;27;44154;-67
2021/07/30 00:51:28;;;;;;;;;;;;;;;;;;2114177;28;47250;-68
2021/07/30 00:52:30;;;;;;;;;;;;;;;;;;2113216;28;47023;-68
2021/07/30 00:53:31;;;;;;;;;;;;;;;;;;2105429;28;46006;-68
2021/07/30 00:54:33;;;;;;;;;;;;;;;;;;2113738;28;47546;-68
2021/07/30 00:55:36;;;;;;;;;;;;;;;;;;2113709;28;44619;-68
2021/07/30 00:56:37;;;;;;;;;;;;;;;;;;2113934;28;43762;-68
2021/07/30 00:57:40;;;;;;;;;;;;;;;;;;2113886;28;47073;-69
2021/07/30 00:58:41;;;;;;;;;;;;;;;;;;2113664;28;46048;-69
2021/07/30 00:59:43;;;;;;;;;;;;;;;;;;2113608;28;46975;-69
2021/07/30 01:00:45;;;;;;;;;;;;;;;;;;2114487;27;45728;-69
2021/07/30 01:01:46;;;;;;;;;;;;;;;;;;2113643;28;44248;-69
2021/07/30 01:02:49;;;;;;;;;;;;;;;;;;2117307;27;46380;-69
2021/07/30 01:03:50;;;;;;;;;;;;;;;;;;2122392;27;45531;-69
2021/07/30 01:04:52;;;;;;;;;;;;;;;;;;2122841;27;46780;-69
2021/07/30 01:05:53;;;;;;;;;;;;;;;;;;2122352;27;44204;-69
2021/07/30 01:06:55;;;;;;;;;;;;;;;;;;2122111;27;44410;-69
2021/07/30 01:07:57;;;;;;;;;;;;;;;;;;2122477;27;45579;-69
2021/07/30 01:08:58;;;;;;;;;;;;;;;;;;2113968;27;44271;-69
2021/07/30 01:10:00;;;;;;;;;;;;;;;;;;2122268;27;45474;-68
2021/07/30 01:11:02;;;;;;;;;;;;;;;;;;2121931;27;45198;-68
2021/07/30 01:12:04;;;;;;;;;;;;;;;;;;2122033;27;45330;-68
2021/07/30 01:13:05;;;;;;;;;;;;;;;;;;2122090;27;45280;-68
2021/07/30 01:14:09;;;;;;;;;;;;;;;;;;2113539;27;45491;-67
2021/07/30 01:15:11;;;;;;;;;;;;;;;;;;2122109;27;45173;-67
2021/07/30 01:16:12;;;;;;;;;;;;;;;;;;2115477;27;44224;-67
2021/07/30 01:17:13;;;;;;;;;;;;;;;;;;2115106;27;45180;-67
2021/07/30 01:18:15;;;;;;;;;;;;;;;;;;2123936;27;45356;-67
2021/07/30 01:19:20;;;;;;;;;;;;;;;;;;2115014;27;45182;-66
2021/07/30 01:20:24;;;;;;;;;;;;;;;;;;2123653;27;45274;-66
2021/07/30 01:21:33;;;;;;;;;;;;;;;;;;2123257;27;45193;-66
2021/07/30 01:22:38;;;;;;;;;;;;;;;;;;2116539;27;45241;-65
2021/07/30 01:23:39;;;;;;;;;;;;;;;;;;2123518;27;44435;-66
2021/07/30 01:24:41;;;;;;;;;;;;;;;;;;2124184;27;46628;-66
2021/07/30 01:25:42;;;;;;;;;;;;;;;;;;2123935;27;43647;-66
2021/07/30 01:26:44;;;;;;;;;;;;;;;;;;2123572;27;46849;-66
2021/07/30 01:27:45;;;;;;;;;;;;;;;;;;2115134;27;45662;-66
2021/07/30 01:28:47;;;;;;;;;;;;;;;;;;2123561;27;45699;-66
2021/07/30 01:29:49;;;;;;;;;;;;;;;;;;2124179;27;45479;-66
2021/07/30 01:30:50;;;;;;;;;;;;;;;;;;2123784;27;45518;-66
2021/07/30 01:31:52;;;;;;;;;;;;;;;;;;2123411;27;45593;-65
2021/07/30 01:32:53;;;;;;;;;;;;;;;;;;2123478;27;45371;-66
2021/07/30 01:33:54;;;;;;;;;;;;;;;;;;2123362;27;46693;-66
2021/07/30 01:34:56;;;;;;;;;;;;;;;;;;2114993;27;46743;-65
2021/07/30 01:35:57;;;;;;;;;;;;;;;;;;2123210;27;43978;-65
2021/07/30 01:36:59;;;;;;;;;;;;;;;;;;2123550;27;44111;-65
2021/07/30 01:38:00;;;;;;;;;;;;;;;;;;2123200;27;45316;-65
2021/07/30 01:39:01;;;;;;;;;;;;;;;;;;2123531;27;44348;-65
2021/07/30 01:40:04;;;;;;;;;;;;;;;;;;2123878;27;45427;-65
2021/07/30 01:41:11;;;;;;;;;;;;;;;;;;2123503;27;46539;-66
2021/07/30 01:42:12;;;;;;;;;;;;;;;;;;2115673;27;45298;-66
2021/07/30 01:43:14;;;;;;;;;;;;;;;;;;2123700;27;46770;-66
2021/07/30 01:44:15;;;;;;;;;;;;;;;;;;2123664;27;46372;-66
2021/07/30 01:45:17;;;;;;;;;;;;;;;;;;2123500;27;45877;-67
2021/07/30 01:46:18;;;;;;;;;;;;;;;;;;2114937;27;45726;-66
2021/07/30 01:47:20;;;;;;;;;;;;;;;;;;2115097;27;46154;-66
2021/07/30 01:48:21;;;;;;;;;;;;;;;;;;2123277;27;45472;-66
2021/07/30 01:49:23;;;;;;;;;;;;;;;;;;2123555;27;47056;-66
2021/07/30 01:50:24;;;;;;;;;;;;;;;;;;2123359;27;45857;-66
2021/07/30 01:51:25;;;;;;;;;;;;;;;;;;2124041;27;45277;-66
2021/07/30 01:52:27;;;;;;;;;;;;;;;;;;2123239;27;47221;-66
2021/07/30 01:53:29;;;;;;;;;;;;;;;;;;2115615;27;45044;-66
2021/07/30 01:54:30;;;;;;;;;;;;;;;;;;2123331;27;44432;-66
2021/07/30 01:55:32;;;;;;;;;;;;;;;;;;2123564;27;47082;-67
2021/07/30 01:56:33;;;;;;;;;;;;;;;;;;2124037;27;47226;-66
2021/07/30 01:57:34;;;;;;;;;;;;;;;;;;2123632;27;45387;-67
2021/07/30 01:58:36;;;;;;;;;;;;;;;;;;2114917;27;45768;-67
2021/07/30 01:59:40;;;;;;;;;;;;;;;;;;2123375;27;47136;-66
2021/07/30 02:00:41;;;;;;;;;;;;;;;;;;2124036;27;47037;-67
2021/07/30 02:01:43;;;;;;;;;;;;;;;;;;2123168;27;47054;-67
2021/07/30 02:02:44;;;;;;;;;;;;;;;;;;2114968;27;46208;-67
2021/07/30 02:03:45;;;;;;;;;;;;;;;;;;2123305;27;46085;-67
2021/07/30 02:04:47;;;;;;;;;;;;;;;;;;2115082;27;47053;-67
2021/07/30 02:05:48;;;;;;;;;;;;;;;;;;2114794;27;45906;-67
2021/07/30 02:06:50;;;;;;;;;;;;;;;;;;2123477;27;45908;-67
2021/07/30 02:07:51;;;;;;;;;;;;;;;;;;2122933;27;43796;-67
2021/07/30 02:08:53;;;;;;;;;;;;;;;;;;2122833;27;46571;-67
2021/07/30 02:09:54;;;;;;;;;;;;;;;;;;2122889;27;44031;-67
2021/07/30 02:10:56;;;;;;;;;;;;;;;;;;2122876;27;45504;-67
2021/07/30 02:11:57;;;;;;;;;;;;;;;;;;2122945;27;46273;-65
2021/07/30 02:14:20;;;;;;;;;;;;;;;;;;2123615;27;46637;-66
2021/07/30 02:15:21;;;;;;;;;;;;;;;;;;2123776;27;45218;-66
2021/07/30 02:16:23;;;;;;;;;;;;;;;;;;2123459;27;45507;-66
2021/07/30 02:17:25;;;;;;;;;;;;;;;;;;2115042;27;45554;-67
2021/07/30 02:18:26;;;;;;;;;;;;;;;;;;2123327;27;43990;-67
2021/07/30 02:19:27;;;;;;;;;;;;;;;;;;2123275;27;45173;-67
2021/07/30 02:20:29;;;;;;;;;;;;;;;;;;2114736;27;45119;-67
2021/07/30 02:21:30;;;;;;;;;;;;;;;;;;2123364;27;46313;-67
2021/07/30 02:22:32;;;;;;;;;;;;;;;;;;2123193;27;45260;-67
2021/07/30 02:23:35;;;;;;;;;;;;;;;;;;2114975;27;44938;-68
2021/07/30 02:24:36;;;;;;;;;;;;;;;;;;2123193;27;46704;-66
2021/07/30 02:25:38;;;;;;;;;;;;;;;;;;2115001;27;45207;-66
2021/07/30 02:26:39;;;;;;;;;;;;;;;;;;2122627;27;45109;-66
2021/07/30 02:27:41;;;;;;;;;;;;;;;;;;2114201;27;45301;-66
2021/07/30 02:28:42;;;;;;;;;;;;;;;;;;2114997;27;45126;-66
2021/07/30 02:29:43;;;;;;;;;;;;;;;;;;2114961;27;45554;-65
2021/07/30 02:30:45;;;;;;;;;;;;;;;;;;2114770;27;45287;-66
2021/07/30 02:31:48;;;;;;;;;;;;;;;;;;2123232;27;46581;-66
2021/07/30 02:32:50;;;;;;;;;;;;;;;;;;2123091;27;46819;-67
2021/07/30 02:33:51;;;;;;;;;;;;;;;;;;2123317;27;46681;-66
2021/07/30 02:34:52;;;;;;;;;;;;;;;;;;2123631;27;45605;-67
2021/07/30 02:35:54;;;;;;;;;;;;;;;;;;2123245;27;45429;-67
2021/07/30 02:36:55;;;;;;;;;;;;;;;;;;2123336;27;44108;-67
2021/07/30 02:37:57;;;;;;;;;;;;;;;;;;2123459;27;43725;-66
2021/07/30 02:38:58;;;;;;;;;;;;;;;;;;2122887;27;46622;-67
2021/07/30 02:40:00;;;;;;;;;;;;;;;;;;2123395;27;45345;-66
2021/07/30 02:41:01;;;;;;;;;;;;;;;;;;2114445;27;45603;-67
2021/07/30 02:42:03;;;;;;;;;;;;;;;;;;2123499;27;45129;-67
2021/07/30 02:43:04;;;;;;;;;;;;;;;;;;2114536;27;45381;-65
2021/07/30 02:44:06;;;;;;;;;;;;;;;;;;2123248;27;45742;-64
2021/07/30 02:45:07;;;;;;;;;;;;;;;;;;2123075;27;45675;-66
2021/07/30 02:46:09;;;;;;;;;;;;;;;;;;2123244;27;46616;-66
2021/07/30 02:47:10;;;;;;;;;;;;;;;;;;2122995;27;45697;-65
2021/07/30 02:48:11;;;;;;;;;;;;;;;;;;2123218;27;45265;-65
2021/07/30 02:49:13;;;;;;;;;;;;;;;;;;2122897;27;44041;-64
2021/07/30 02:50:14;;;;;;;;;;;;;;;;;;2123517;27;45789;-65
2021/07/30 02:51:16;;;;;;;;;;;;;;;;;;2123714;27;46876;-65
2021/07/30 02:52:17;;;;;;;;;;;;;;;;;;2123310;27;45779;-65
2021/07/30 02:53:19;;;;;;;;;;;;;;;;;;2114947;27;43229;-65
2021/07/30 02:54:20;;;;;;;;;;;;;;;;;;2123338;27;46879;-64
2021/07/30 02:55:22;;;;;;;;;;;;;;;;;;2123775;27;47000;-64
2021/07/30 02:56:23;;;;;;;;;;;;;;;;;;2123285;27;46863;-64
2021/07/30 02:57:25;;;;;;;;;;;;;;;;;;2114824;27;45827;-63
2021/07/30 02:58:26;;;;;;;;;;;;;;;;;;2123551;27;46163;-64
2021/07/30 02:59:28;;;;;;;;;;;;;;;;;;2123122;27;43559;-64
2021/07/30 03:00:29;;;;;;;;;;;;;;;;;;2123879;27;47573;-64
2021/07/30 03:01:31;;;;;;;;;;;;;;;;;;2122768;27;45697;-65
2021/07/30 03:02:32;;;;;;;;;;;;;;;;;;2114625;27;44642;-65
2021/07/30 03:03:34;;;;;;;;;;;;;;;;;;2123094;27;47258;-66
2021/07/30 03:04:35;;;;;;;;;;;;;;;;;;2123148;27;44584;-65
2021/07/30 03:05:37;;;;;;;;;;;;;;;;;;2122867;27;46019;-65
2021/07/30 03:06:40;;;;;;;;;;;;;;;;;;2123161;27;46135;-66
2021/07/30 03:07:41;;;;;;;;;;;;;;;;;;2122926;27;45927;-66
2021/07/30 03:08:43;;;;;;;;;;;;;;;;;;2123143;27;47406;-68
2021/07/30 03:09:44;;;;;;;;;;;;;;;;;;2122829;27;47414;-68
2021/07/30 03:10:46;;;;;;;;;;;;;;;;;;2122974;27;47039;-68
2021/07/30 03:11:47;;;;;;;;;;;;;;;;;;2114245;27;45899;-69
2021/07/30 03:12:48;;;;;;;;;;;;;;;;;;2123084;27;47162;-68
2021/07/30 03:13:50;;;;;;;;;;;;;;;;;;2122949;27;43746;-68
2021/07/30 03:14:51;;;;;;;;;;;;;;;;;;2114622;27;45326;-68
2021/07/30 03:15:56;;;;;;;;;;;;;;;;;;2122799;27;45132;-67
2021/07/30 03:16:58;;;;;;;;;;;;;;;;;;2123122;27;44038;-68
2021/07/30 03:17:59;;;;;;;;;;;;;;;;;;2123137;27;45526;-67
2021/07/30 03:19:00;;;;;;;;;;;;;;;;;;2122936;27;45471;-70
2021/07/30 03:20:05;;;;;;;;;;;;;;;;;;2123204;27;46815;-69
2021/07/30 03:21:06;;;;;;;;;;;;;;;;;;2123465;27;44097;-69
2021/07/30 03:22:08;;;;;;;;;;;;;;;;;;2123112;27;46384;-69
2021/07/30 03:23:09;;;;;;;;;;;;;;;;;;2123231;27;43794;-70
2021/07/30 03:24:10;;;;;;;;;;;;;;;;;;2122178;27;45137;-69
2021/07/30 03:25:12;;;;;;;;;;;;;;;;;;2122924;27;43899;-67
2021/07/30 03:26:13;;;;;;;;;;;;;;;;;;2122713;27;46194;-67
2021/07/30 03:27:15;;;;;;;;;;;;;;;;;;2122812;27;45213;-67
2021/07/30 03:28:16;;;;;;;;;;;;;;;;;;2114604;27;43783;-67
2021/07/30 03:29:18;;;;;;;;;;;;;;;;;;2123069;27;43623;-67
2021/07/30 03:30:19;;;;;;;;;;;;;;;;;;2122903;27;45272;-67
2021/07/30 03:31:21;;;;;;;;;;;;;;;;;;2122799;27;45569;-67
2021/07/30 03:32:22;;;;;;;;;;;;;;;;;;2122769;27;44067;-67
2021/07/30 03:33:23;;;;;;;;;;;;;;;;;;2122837;27;45204;-67
2021/07/30 03:34:27;;;;;;;;;;;;;;;;;;2123088;27;45525;-67
2021/07/30 03:35:29;;;;;;;;;;;;;;;;;;2123426;27;44410;-67
2021/07/30 03:36:31;;;;;;;;;;;;;;;;;;2122808;27;43958;-67
2021/07/30 03:37:33;;;;;;;;;;;;;;;;;;2114584;27;46708;-67
2021/07/30 03:38:34;;;;;;;;;;;;;;;;;;2114222;27;46900;-69
2021/07/30 03:39:36;;;;;;;;;;;;;;;;;;2114467;27;42936;-69
2021/07/30 03:40:37;;;;;;;;;;;;;;;;;;2114557;27;45466;-69
2021/07/30 03:41:39;;;;;;;;;;;;;;;;;;2122603;27;45805;-69
2021/07/30 03:42:40;;;;;;;;;;;;;;;;;;2122566;27;45304;-69
2021/07/30 03:43:41;;;;;;;;;;;;;;;;;;2114351;27;46341;-69
2021/07/30 03:44:43;;;;;;;;;;;;;;;;;;2122799;27;46600;-69
2021/07/30 03:45:45;;;;;;;;;;;;;;;;;;2122704;27;45327;-67
2021/07/30 03:46:46;;;;;;;;;;;;;;;;;;2114480;27;45399;-67
2021/07/30 03:47:47;;;;;;;;;;;;;;;;;;2122735;27;46395;-67
2021/07/30 03:48:49;;;;;;;;;;;;;;;;;;2122707;27;45714;-67
2021/07/30 03:49:50;;;;;;;;;;;;;;;;;;2114036;27;45361;-67
2021/07/30 03:50:51;;;;;;;;;;;;;;;;;;2122744;27;46688;-67
2021/07/30 03:51:53;;;;;;;;;;;;;;;;;;2122409;27;45278;-67
2021/07/30 03:52:54;;;;;;;;;;;;;;;;;;2114227;27;45446;-67
2021/07/30 03:53:55;;;;;;;;;;;;;;;;;;2122548;27;46768;-67
2021/07/30 03:54:57;;;;;;;;;;;;;;;;;;2123147;27;44962;-67
2021/07/30 03:55:58;;;;;;;;;;;;;;;;;;2123002;27;46544;-67
2021/07/30 03:57:00;;;;;;;;;;;;;;;;;;2114179;27;46001;-67
2021/07/30 03:58:01;;;;;;;;;;;;;;;;;;2122556;27;44305;-67
2021/07/30 03:59:02;;;;;;;;;;;;;;;;;;2123306;27;46004;-67
2021/07/30 04:00:04;;;;;;;;;;;;;;;;;;2122708;27;45748;-67
2021/07/30 04:01:09;;;;;;;;;;;;;;;;;;2114169;27;45023;-67
2021/07/30 04:02:10;;;;;;;;;;;;;;;;;;2114537;27;45877;-67
2021/07/30 04:03:12;;;;;;;;;;;;;;;;;;2114407;27;46260;-69
2021/07/30 04:04:14;;;;;;;;;;;;;;;;;;2122500;27;47035;-69
2021/07/30 04:05:15;;;;;;;;;;;;;;;;;;2122696;27;46821;-68
2021/07/30 04:06:17;;;;;;;;;;;;;;;;;;2122412;27;46919;-69
2021/07/30 04:07:18;;;;;;;;;;;;;;;;;;2122710;27;45906;-69
2021/07/30 04:08:19;;;;;;;;;;;;;;;;;;2122669;27;45761;-68
2021/07/30 04:09:21;;;;;;;;;;;;;;;;;;2122569;27;47071;-68
2021/07/30 04:10:23;;;;;;;;;;;;;;;;;;2114284;27;47060;-68
2021/07/30 04:11:24;;;;;;;;;;;;;;;;;;2122424;27;43940;-68
2021/07/30 04:12:25;;;;;;;;;;;;;;;;;;2122157;27;46973;-68
2021/07/30 04:13:27;;;;;;;;;;;;;;;;;;2113738;27;46961;-67
2021/07/30 04:14:28;;;;;;;;;;;;;;;;;;2122277;27;46960;-67
2021/07/30 04:15:31;;;;;;;;;;;;;;;;;;2123207;27;46307;-68
2021/07/30 04:16:35;;;;;;;;;;;;;;;;;;2122527;27;45401;-68
2021/07/30 04:17:37;;;;;;;;;;;;;;;;;;2114718;27;45753;-67
2021/07/30 04:18:39;;;;;;;;;;;;;;;;;;2122306;27;46769;-67
2021/07/30 04:19:43;;;;;;;;;;;;;;;;;;2122483;27;45360;-68
2021/07/30 04:20:45;;;;;;;;;;;;;;;;;;2114406;27;45673;-67
2021/07/30 04:21:46;;;;;;;;;;;;;;;;;;2122433;27;45585;-68
2021/07/30 04:22:48;;;;;;;;;;;;;;;;;;2122692;27;46704;-67
2021/07/30 04:23:49;;;;;;;;;;;;;;;;;;2123192;27;46449;-68
2021/07/30 04:24:51;;;;;;;;;;;;;;;;;;2123031;27;45177;-68
2021/07/30 04:25:52;;;;;;;;;;;;;;;;;;2123186;27;43890;-68
2021/07/30 04:26:54;;;;;;;;;;;;;;;;;;2122841;27;45447;-68
2021/07/30 04:27:55;;;;;;;;;;;;;;;;;;2122770;27;43847;-68
2021/07/30 04:28:57;;;;;;;;;;;;;;;;;;2114453;27;44060;-68
2021/07/30 04:29:58;;;;;;;;;;;;;;;;;;2114135;27;45191;-68
2021/07/30 04:31:02;;;;;;;;;;;;;;;;;;2122391;27;44329;-67
2021/07/30 04:32:04;;;;;;;;;;;;;;;;;;2122455;27;46906;-68
2021/07/30 04:33:07;;;;;;;;;;;;;;;;;;2122940;27;46354;-68
2021/07/30 04:34:08;;;;;;;;;;;;;;;;;;2122361;27;45194;-68
2021/07/30 04:35:10;;;;;;;;;;;;;;;;;;2113782;27;45210;-68
2021/07/30 04:36:15;;;;;;;;;;;;;;;;;;2114095;27;45115;-68
2021/07/30 04:37:16;;;;;;;;;;;;;;;;;;2122346;27;45454;-68
2021/07/30 04:38:17;;;;;;;;;;;;;;;;;;2122426;27;44515;-68
2021/07/30 04:39:19;;;;;;;;;;;;;;;;;;2114001;27;46782;-68
2021/07/30 04:40:20;;;;;;;;;;;;;;;;;;2122718;27;46269;-68
2021/07/30 04:41:21;;;;;;;;;;;;;;;;;;2122151;27;45257;-68
2021/07/30 04:42:24;;;;;;;;;;;;;;;;;;2122334;27;45455;-68
2021/07/30 04:43:26;;;;;;;;;;;;;;;;;;2114206;27;45600;-68
2021/07/30 04:44:27;;;;;;;;;;;;;;;;;;2122569;27;44716;-68
2021/07/30 04:45:28;;;;;;;;;;;;;;;;;;2122662;27;45504;-68
2021/07/30 04:46:30;;;;;;;;;;;;;;;;;;2122983;27;45428;-68
2021/07/30 04:47:31;;;;;;;;;;;;;;;;;;2122254;27;45602;-67
2021/07/30 04:48:33;;;;;;;;;;;;;;;;;;2122256;27;46664;-68
2021/07/30 04:49:34;;;;;;;;;;;;;;;;;;2122117;27;45280;-69
2021/07/30 04:50:35;;;;;;;;;;;;;;;;;;2113203;27;46529;-68
2021/07/30 04:51:37;;;;;;;;;;;;;;;;;;2122193;27;45454;-67
2021/07/30 04:52:38;;;;;;;;;;;;;;;;;;2122134;27;45487;-67
2021/07/30 04:53:40;;;;;;;;;;;;;;;;;;2122764;27;45358;-67
2021/07/30 04:54:41;;;;;;;;;;;;;;;;;;2122221;27;45293;-67
2021/07/30 04:55:43;;;;;;;;;;;;;;;;;;2122331;27;45642;-67
2021/07/30 04:56:44;;;;;;;;;;;;;;;;;;2122990;27;46519;-67
2021/07/30 04:57:46;;;;;;;;;;;;;;;;;;2123029;27;42649;-67
2021/07/30 04:58:47;;;;;;;;;;;;;;;;;;2122396;27;42383;-68
2021/07/30 04:59:49;;;;;;;;;;;;;;;;;;2114277;27;46177;-68
2021/07/30 05:00:50;;;;;;;;;;;;;;;;;;2122276;27;45212;-69
2021/07/30 05:01:52;;;;;;;;;;;;;;;;;;2131026;27;45337;-68
2021/07/30 05:02:56;;;;;;;;;;;;;;;;;;2121811;27;44753;-67
2021/07/30 05:03:57;;;;;;;;;;;;;;;;;;2114149;27;44802;-68
2021/07/30 05:05:01;;;;;;;;;;;;;;;;;;2121730;27;45150;-68
2021/07/30 05:06:11;;;;;;;;;;;;;;;;;;2122325;27;47162;-68
2021/07/30 05:07:13;;;;;;;;;;;;;;;;;;2122289;27;46053;-68
2021/07/30 05:08:14;;;;;;;;;;;;;;;;;;2122719;27;47032;-68
2021/07/30 05:09:15;;;;;;;;;;;;;;;;;;2122855;27;45895;-69
2021/07/30 05:10:17;;;;;;;;;;;;;;;;;;2122871;27;45355;-69
2021/07/30 05:11:18;;;;;;;;;;;;;;;;;;2121866;27;47045;-68
2021/07/30 05:12:20;;;;;;;;;;;;;;;;;;2122126;27;45902;-68
2021/07/30 05:13:21;;;;;;;;;;;;;;;;;;2122178;27;46211;-68
2021/07/30 05:14:23;;;;;;;;;;;;;;;;;;2113934;27;44925;-68
2021/07/30 05:15:24;;;;;;;;;;;;;;;;;;2113687;27;44537;-67
2021/07/30 05:16:25;;;;;;;;;;;;;;;;;;2113879;27;47184;-67
2021/07/30 05:17:27;;;;;;;;;;;;;;;;;;2122076;27;47332;-67
2021/07/30 05:18:28;;;;;;;;;;;;;;;;;;2122149;27;45701;-67
2021/07/30 05:19:30;;;;;;;;;;;;;;;;;;2114038;27;43592;-68
2021/07/30 05:20:31;;;;;;;;;;;;;;;;;;2113868;27;44516;-68
2021/07/30 05:21:32;;;;;;;;;;;;;;;;;;2121900;27;45931;-69
2021/07/30 05:22:34;;;;;;;;;;;;;;;;;;2122000;27;47283;-68
2021/07/30 05:23:36;;;;;;;;;;;;;;;;;;2122036;27;46336;-68
2021/07/30 05:24:37;;;;;;;;;;;;;;;;;;2122619;27;46870;-68
2021/07/30 05:25:38;;;;;;;;;;;;;;;;;;2122633;27;45316;-68
2021/07/30 05:26:40;;;;;;;;;;;;;;;;;;2122894;27;46552;-68
2021/07/30 05:27:41;;;;;;;;;;;;;;;;;;2122094;27;45254;-68
2021/07/30 05:28:43;;;;;;;;;;;;;;;;;;2113797;27;45310;-69
2021/07/30 05:29:45;;;;;;;;;;;;;;;;;;2122178;27;45335;-69
2021/07/30 05:30:46;;;;;;;;;;;;;;;;;;2122147;27;45332;-69
2021/07/30 05:31:48;;;;;;;;;;;;;;;;;;2121791;27;45318;-68
2021/07/30 05:32:49;;;;;;;;;;;;;;;;;;2113600;27;45266;-69
2021/07/30 05:33:51;;;;;;;;;;;;;;;;;;2113692;27;46199;-68
2021/07/30 05:34:52;;;;;;;;;;;;;;;;;;2122188;27;45231;-68
2021/07/30 05:35:54;;;;;;;;;;;;;;;;;;2122702;27;45486;-68
2021/07/30 05:36:56;;;;;;;;;;;;;;;;;;2122736;27;45175;-67
2021/07/30 05:37:57;;;;;;;;;;;;;;;;;;2121838;27;43845;-67
2021/07/30 05:38:59;;;;;;;;;;;;;;;;;;2113753;27;43897;-71
2021/07/30 05:40:00;;;;;;;;;;;;;;;;;;2122073;27;46688;-68
2021/07/30 05:41:02;;;;;;;;;;;;;;;;;;2121964;27;46379;-74
2021/07/30 05:42:04;;;;;;;;;;;;;;;;;;2122647;27;45223;-69
2021/07/30 05:43:05;;;;;;;;;;;;;;;;;;2122613;27;45259;-69
2021/07/30 05:44:06;;;;;;;;;;;;;;;;;;2122850;27;45165;-68
2021/07/30 05:45:08;;;;;;;;;;;;;;;;;;2122043;27;46281;-69
2021/07/30 05:46:10;;;;;;;;;;;;;;;;;;2122302;27;45331;-68
2021/07/30 05:47:12;;;;;;;;;;;;;;;;;;2122785;27;44754;-68
2021/07/30 05:48:13;;;;;;;;;;;;;;;;;;2121896;27;46634;-68
2021/07/30 05:49:14;;;;;;;;;;;;;;;;;;2113631;27;48419;-68
2021/07/30 05:50:16;;;;;;;;;;;;;;;;;;2121975;27;45251;-68
2021/07/30 05:51:18;;;;;;;;;;;;;;;;;;2122511;27;45431;-68
2021/07/30 05:52:19;;;;;;;;;;;;;;;;;;2122308;27;46651;-71
2021/07/30 05:53:20;;;;;;;;;;;;;;;;;;2122814;27;46754;-68
2021/07/30 05:54:22;;;;;;;;;;;;;;;;;;2122193;27;42868;-73
2021/07/30 05:55:23;;;;;;;;;;;;;;;;;;2122044;27;45501;-72
2021/07/30 05:56:25;;;;;;;;;;;;;;;;;;2121677;27;46518;-70
2021/07/30 05:57:26;;;;;;;;;;;;;;;;;;2122189;27;45412;-68
2021/07/30 05:58:28;;;;;;;;;;;;;;;;;;2122550;27;45322;-69
2021/07/30 05:59:29;;;;;;;;;;;;;;;;;;2122048;27;45322;-68
2021/07/30 06:00:30;;;;;;;;;;;;;;;;;;2122075;27;44101;-67
2021/07/30 06:01:32;;;;;;;;;;;;;;;;;;2123412;27;45120;-71
2021/07/30 06:02:34;;;;;;;;;;;;;;;;;;2123896;27;45667;-69
2021/07/30 06:03:35;;;;;;;;;;;;;;;;;;2114828;27;46079;-67
2021/07/30 06:04:37;;;;;;;;;;;;;;;;;;2123886;27;46445;-67
2021/07/30 06:05:38;;;;;;;;;;;;;;;;;;2123685;27;45510;-66
2021/07/30 06:06:40;;;;;;;;;;;;;;;;;;2115083;27;45465;-66
2021/07/30 06:07:42;;;;;;;;;;;;;;;;;;2115590;27;44017;-66
2021/07/30 06:08:43;;;;;;;;;;;;;;;;;;2114882;27;46145;-66
2021/07/30 06:09:44;;;;;;;;;;;;;;;;;;2123477;27;47002;-66
2021/07/30 06:10:46;;;;;;;;;;;;;;;;;;2123318;27;47055;-66
2021/07/30 06:11:47;;;;;;;;;;;;;;;;;;2115242;27;47004;-66
2021/07/30 06:12:49;;;;;;;;;;;;;;;;;;2114903;27;45868;-66
2021/07/30 06:13:50;;;;;;;;;;;;;;;;;;2123474;27;46851;-66
2021/07/30 06:14:51;;;;;;;;;;;;;;;;;;2124064;27;47276;-66
2021/07/30 06:15:53;;;;;;;;;;;;;;;;;;2123412;27;46853;-65
2021/07/30 06:16:54;;;;;;;;;;;;;;;;;;2115111;27;46186;-66
2021/07/30 06:17:56;;;;;;;;;;;;;;;;;;2114833;27;45938;-66
2021/07/30 06:18:57;;;;;;;;;;;;;;;;;;2123416;27;46996;-65
2021/07/30 06:19:59;;;;;;;;;;;;;;;;;;2123875;27;47071;-66
2021/07/30 06:21:00;;;;;;;;;;;;;;;;;;2124041;27;46154;-66
2021/07/30 06:22:02;;;;;;;;;;;;;;;;;;2123096;27;45753;-65
2021/07/30 06:23:03;;;;;;;;;;;;;;;;;;2114979;27;45889;-66
2021/07/30 06:24:05;;;;;;;;;;;;;;;;;;2119927;27;45797;-66
2021/07/30 06:25:07;;;;;;;;;;;;;;;;;;2114886;28;47126;-66
2021/07/30 06:26:08;;;;;;;;;;;;;;;;;;2115399;28;46954;-66
2021/07/30 06:27:15;;;;;;;;;;;;;;;;;;2115435;28;47374;-66
2021/07/30 06:28:16;;;;;;;;;;;;;;;;;;2115277;28;45866;-66
2021/07/30 06:29:17;;;;;;;;;;;;;;;;;;2114819;28;47022;-66
2021/07/30 06:30:19;;;;;;;;;;;;;;;;;;2115069;28;44521;-66
2021/07/30 06:31:20;;;;;;;;;;;;;;;;;;2114460;28;45239;-66
2021/07/30 06:32:22;;;;;;;;;;;;;;;;;;2106119;28;44326;-66
2021/07/30 06:33:28;;;;;;;;;;;;;;;;;;2114852;28;46533;-66
2021/07/30 06:34:29;;;;;;;;;;;;;;;;;;2114662;28;46351;-66
2021/07/30 06:35:33;;;;;;;;;;;;;;;;;;2114811;28;45455;-66
2021/07/30 06:36:35;;;;;;;;;;;;;;;;;;2115328;28;45310;-66
2021/07/30 06:37:37;;;;;;;;;;;;;;;;;;2115339;28;46537;-65
2021/07/30 06:38:38;;;;;;;;;;;;;;;;;;2115481;28;45651;-65
2021/07/30 06:39:40;;;;;;;;;;;;;;;;;;2114656;28;46195;-66
2021/07/30 06:40:43;;;;;;;;;;;;;;;;;;2106373;28;45323;-66
2021/07/30 06:41:45;;;;;;;;;;;;;;;;;;2114506;28;44204;-66
2021/07/30 06:42:46;;;;;;;;;;;;;;;;;;2114436;28;45371;-65
2021/07/30 06:43:48;;;;;;;;;;;;;;;;;;2114741;28;43588;-66
2021/07/30 06:44:49;;;;;;;;;;;;;;;;;;2114566;28;45302;-65
2021/07/30 06:45:50;;;;;;;;;;;;;;;;;;2114861;28;46610;-65
2021/07/30 06:46:52;;;;;;;;;;;;;;;;;;2106206;28;46528;-65
2021/07/30 06:47:53;;;;;;;;;;;;;;;;;;2106275;28;45530;-65
2021/07/30 06:48:55;;;;;;;;;;;;;;;;;;2106251;28;45268;-66
2021/07/30 06:49:56;;;;;;;;;;;;;;;;;;2115596;28;45565;-66
2021/07/30 06:50:58;;;;;;;;;;;;;;;;;;2114505;28;46251;-65
2021/07/30 06:51:59;;;;;;;;;;;;;;;;;;2114907;28;45295;-65
2021/07/30 06:53:01;;;;;;;;;;;;;;;;;;2120336;27;45191;-66
2021/07/30 06:54:03;;;;;;;;;;;;;;;;;;2114795;27;44112;-68
2021/07/30 06:55:04;;;;;;;;;;;;;;;;;;2122930;27;45423;-64
2021/07/30 06:56:12;;;;;;;;;;;;;;;;;;2123322;27;44973;-70
2021/07/30 06:57:16;;;;;;;;;;;;;;;;;;2123133;27;45886;-71
2021/07/30 06:58:17;;;;;;;;;;;;;;;;;;2123264;27;45451;-69
2021/07/30 06:59:19;;;;;;;;;;;;;;;;;;2122893;27;44169;-67
2021/07/30 07:00:20;;;;;;;;;;;;;;;;;;2123122;27;46660;-66
2021/07/30 07:01:22;;;;;;;;;;;;;;;;;;2114150;27;45663;-65
2021/07/30 07:02:23;;;;;;;;;;;;;;;;;;2122837;27;46007;-64